Погода Мирандополисна 2 недели

Сан-Паулу, Бразилия

21 апреля-04 мая
  • 21апреля
    Сегодня
    +22°
    +32°
    Ясно и безоблачно
    ВремяПогодаТемператураВлажностьДавлениеВетер, м/сВероятность осадков
    00:00Ясно и безоблачно+24°C79 %728 мм2.2 м/с5 %
    03:00Ясно и безоблачно+24°C77 %728 мм3.1 м/с5 %
    06:00Ясно и безоблачно+22°C80 %728 мм3.1 м/с5 %
    09:00Ясно и безоблачно+25°C70 %730 мм3.4 м/с5 %
    12:00Практически безоблачно+30°C57 %729 мм3.1 м/с5 %
    15:00Ясно и безоблачно+32°C48 %727 мм1.5 м/с5 %
    18:00Ясно и безоблачно+27°C64 %726 мм1.8 м/с5 %
    21:00Ясно и безоблачно+25°C73 %727 мм2.4 м/с5 %
  • 22апреля
    Понедельник
    +20°
    +32°
    Ясно и безоблачно
    ВремяПогодаТемператураВлажностьДавлениеВетер, м/сВероятность осадков
    00:00Ясно и безоблачно+25°C72 %727 мм1.2 м/с5 %
    03:00Ясно и безоблачно+24°C75 %727 мм2.6 м/с5 %
    06:00Ясно и безоблачно+23°C73 %727 мм3.0 м/с5 %
    09:00Ясно и безоблачно+26°C64 %728 мм2.4 м/с5 %
    12:00Ясно и безоблачно+30°C42 %728 мм2.8 м/с5 %
    15:00Ясно и безоблачно+32°C40 %726 мм1.7 м/с5 %
    18:00Ясно и безоблачно+26°C60 %725 мм2.1 м/с5 %
    21:00Небольшая облачность+25°C64 %726 мм2.6 м/с5 %
  • 23апреля
    Вторник
    +20°
    +33°
    Практически безоблачно
    ВремяПогодаТемператураВлажностьДавлениеВетер, м/сВероятность осадков
    00:00Облачно с прояснениями+24°C64 %726 мм1.9 м/с5 %
    03:00Облачно с прояснениями+22°C67 %726 мм2.5 м/с5 %
    06:00Практически безоблачно+22°C68 %726 мм2.0 м/с5 %
    09:00Небольшая облачность+25°C61 %728 мм1.8 м/с5 %
    12:00Практически безоблачно+30°C40 %728 мм2.1 м/с5 %
    15:00Практически безоблачно+32°C35 %726 мм2.0 м/с5 %
    18:00Облачно с прояснениями+28°C48 %726 мм1.3 м/с5 %
    21:00Облачно с прояснениями+27°C52 %727 мм0.9 м/с5 %
  • 24апреля
    Среда
    +21°
    +33°
    Ясно и безоблачно
    ВремяПогодаТемператураВлажностьДавлениеВетер, м/сВероятность осадков
    00:00Практически безоблачно+24°C69 %726 мм2.3 м/с5 %
    03:00Облачно с прояснениями+23°C71 %726 мм2.3 м/с5 %
    06:00Облачно с прояснениями+22°C75 %727 мм1.9 м/с5 %
    09:00Небольшая облачность+26°C59 %728 мм1.7 м/с5 %
    12:00Практически безоблачно+30°C41 %729 мм1.7 м/с5 %
    15:00Ясно и безоблачно+32°C38 %727 мм1.0 м/с5 %
    18:00Ясно и безоблачно+31°C44 %727 мм0.4 м/с5 %
    21:00Ясно и безоблачно+26°C67 %727 мм1.9 м/с5 %
  • 25апреля
    Четверг
    +23°
    +33°
    Ясно и безоблачно
    ВремяПогодаТемператураВлажностьДавлениеВетер, м/сВероятность осадков
    00:00Ясно и безоблачно+24°C69 %727 мм2.4 м/с5 %
    03:00Ясно и безоблачно+23°C65 %726 мм2.3 м/с5 %
    06:00Ясно и безоблачно+22°C67 %726 мм2.1 м/с5 %
    09:00Ясно и безоблачно+25°C60 %729 мм3.3 м/с5 %
    12:00Ясно и безоблачно+31°C50 %728 мм3.5 м/с5 %
    15:00Ясно и безоблачно+33°C40 %727 мм2.1 м/с5 %
    18:00Ясно и безоблачно+28°C56 %726 мм2.0 м/с5 %
    21:00Ясно и безоблачно+27°C60 %727 мм2.4 м/с5 %
Мы используем cookies
Соглашаюсь